createdAt,value
2023-02-04T00:00:15.596Z,6.00
2023-02-04T00:02:42.653Z,6.00
2023-02-04T00:05:11.530Z,6.10
2023-02-04T00:07:41.205Z,6.10
2023-02-04T00:10:09.717Z,6.10
2023-02-04T00:12:36.976Z,6.20
2023-02-04T00:15:04.612Z,6.10
2023-02-04T00:17:31.737Z,6.10
2023-02-04T00:19:58.560Z,6.10
2023-02-04T00:22:28.220Z,6.20
2023-02-04T00:24:55.074Z,6.30
2023-02-04T00:27:21.968Z,6.10
2023-02-04T00:29:48.823Z,6.10
2023-02-04T00:32:15.809Z,6.10
2023-02-04T00:34:42.668Z,6.10
2023-02-04T00:37:09.545Z,6.30
2023-02-04T00:39:36.681Z,6.20
2023-02-04T00:42:05.607Z,6.10
2023-02-04T00:44:32.583Z,6.00
2023-02-04T00:46:59.543Z,5.90
2023-02-04T00:49:26.403Z,5.90
2023-02-04T00:51:53.284Z,5.90
2023-02-04T00:54:20.148Z,5.90
2023-02-04T00:56:47.110Z,5.90
2023-02-04T00:59:14.461Z,5.80
2023-02-04T01:01:41.308Z,5.80
2023-02-04T01:04:08.248Z,6.00
2023-02-04T01:06:35.132Z,5.80
2023-02-04T01:09:02.995Z,5.80
2023-02-04T01:11:31.444Z,5.80
2023-02-04T01:13:58.893Z,5.80
2023-02-04T01:16:25.857Z,5.70
2023-02-04T01:18:55.710Z,5.70
2023-02-04T01:21:23.816Z,5.80
2023-02-04T01:23:50.924Z,5.60
2023-02-04T01:26:19.504Z,5.60
2023-02-04T01:28:46.710Z,5.50
2023-02-04T01:31:14.100Z,5.60
2023-02-04T01:33:40.999Z,5.60
2023-02-04T01:36:08.388Z,5.60
2023-02-04T01:38:35.277Z,5.50
2023-02-04T01:41:02.751Z,5.60
2023-02-04T01:43:29.719Z,5.50
2023-02-04T01:45:56.742Z,5.50
2023-02-04T01:48:24.211Z,5.50
2023-02-04T01:50:55.248Z,5.50
2023-02-04T01:53:25.155Z,5.50
2023-02-04T01:55:52.918Z,5.50
2023-02-04T01:58:20.246Z,5.40
2023-02-04T02:00:47.192Z,5.40
2023-02-04T02:03:14.079Z,5.40
2023-02-04T02:05:46.123Z,5.40
2023-02-04T02:08:13.918Z,5.40
2023-02-04T02:10:44.374Z,5.30
2023-02-04T02:13:18.890Z,5.30
2023-02-04T02:15:46.981Z,5.40
2023-02-04T02:18:14.268Z,5.40
2023-02-04T02:20:43.979Z,5.40
2023-02-04T02:23:50.034Z,5.60
2023-02-04T02:26:18.598Z,5.40
2023-02-04T02:28:47.707Z,5.30
2023-02-04T02:31:16.701Z,5.30
2023-02-04T02:33:43.630Z,5.30
2023-02-04T02:36:11.027Z,5.30
2023-02-04T02:38:38.162Z,5.30
2023-02-04T02:41:05.599Z,5.40
2023-02-04T02:43:32.577Z,5.30
2023-02-04T02:46:01.187Z,5.30
2023-02-04T02:48:28.077Z,5.20
2023-02-04T02:50:55.124Z,5.30
2023-02-04T02:53:22.183Z,5.30
2023-02-04T02:55:49.543Z,5.30
2023-02-04T02:58:33.474Z,5.30
2023-02-04T03:01:05.656Z,5.30
2023-02-04T03:03:49.202Z,5.30
2023-02-04T03:06:26.780Z,5.20
2023-02-04T03:08:56.887Z,5.20
2023-02-04T03:11:26.185Z,5.10
2023-02-04T03:13:53.570Z,5.00
2023-02-04T03:16:20.454Z,4.90
2023-02-04T03:18:47.975Z,4.80
2023-02-04T03:21:14.902Z,4.80
2023-02-04T03:23:41.733Z,4.70
2023-02-04T03:26:08.611Z,4.60
2023-02-04T03:28:40.718Z,4.50
2023-02-04T03:31:07.605Z,4.40
2023-02-04T03:33:35.911Z,4.30
2023-02-04T03:36:02.810Z,4.20
2023-02-04T03:38:29.765Z,4.20
2023-02-04T03:40:56.569Z,4.20
2023-02-04T03:43:23.406Z,4.10
2023-02-04T03:45:50.234Z,4.10
2023-02-04T03:48:17.130Z,4.20
2023-02-04T03:50:43.949Z,4.20
2023-02-04T03:53:11.071Z,4.20
2023-02-04T03:55:38.111Z,4.30
2023-02-04T03:58:05.342Z,4.20
2023-02-04T04:00:32.535Z,4.10
2023-02-04T04:03:00.101Z,4.10
2023-02-04T04:05:28.619Z,4.20
2023-02-04T04:07:55.767Z,4.20
2023-02-04T04:10:22.682Z,4.20
2023-02-04T04:12:49.545Z,4.30
2023-02-04T04:15:16.569Z,4.30
2023-02-04T04:17:43.399Z,4.30
2023-02-04T04:20:11.036Z,4.30
2023-02-04T04:22:37.846Z,4.30
2023-02-04T04:25:05.463Z,4.40
2023-02-04T04:27:32.592Z,4.40
2023-02-04T04:29:59.418Z,4.40
2023-02-04T04:32:26.224Z,4.40
2023-02-04T04:34:53.062Z,4.40
2023-02-04T04:37:19.938Z,4.40
2023-02-04T04:39:46.713Z,4.40
2023-02-04T04:42:13.617Z,4.30
2023-02-04T04:44:40.470Z,4.30
2023-02-04T04:47:07.255Z,4.30
2023-02-04T04:49:34.114Z,4.20
2023-02-04T04:52:00.988Z,4.20
2023-02-04T04:54:27.852Z,4.10
2023-02-04T04:56:54.666Z,4.10
2023-02-04T04:59:21.560Z,4.10
2023-02-04T05:01:48.388Z,4.10
2023-02-04T05:04:15.245Z,4.20
2023-02-04T05:06:42.086Z,4.20
2023-02-04T05:09:09.719Z,4.20
2023-02-04T05:11:36.757Z,4.10
2023-02-04T05:14:03.607Z,4.20
2023-02-04T05:16:30.500Z,4.20
2023-02-04T05:18:57.343Z,4.20
2023-02-04T05:21:24.232Z,4.20
2023-02-04T05:23:51.023Z,4.20
2023-02-04T05:26:29.579Z,4.20
2023-02-04T05:28:57.350Z,4.20
2023-02-04T05:31:24.283Z,4.20
2023-02-04T05:33:51.216Z,4.20
2023-02-04T05:36:17.994Z,4.20
2023-02-04T05:38:44.792Z,4.20
2023-02-04T05:41:11.802Z,4.20
2023-02-04T05:43:39.892Z,4.20
2023-02-04T05:46:06.792Z,4.20
2023-02-04T05:48:33.668Z,4.20
2023-02-04T05:51:00.544Z,4.30
2023-02-04T05:53:27.384Z,4.30
2023-02-04T05:55:54.299Z,4.30
2023-02-04T05:58:21.134Z,4.30
2023-02-04T06:00:47.947Z,4.30
2023-02-04T06:03:14.846Z,4.30
2023-02-04T06:05:41.836Z,4.30
2023-02-04T06:08:08.684Z,4.20
2023-02-04T06:10:35.505Z,4.30
2023-02-04T06:13:02.286Z,4.20
2023-02-04T06:15:29.153Z,4.20
2023-02-04T06:17:56.275Z,4.20
2023-02-04T06:20:23.209Z,4.20
2023-02-04T06:22:51.730Z,4.20
2023-02-04T06:25:19.120Z,4.30
2023-02-04T06:27:46.047Z,4.30
2023-02-04T06:30:14.175Z,4.20
2023-02-04T06:32:41.430Z,4.20
2023-02-04T06:35:09.614Z,4.20
2023-02-04T06:37:36.462Z,4.30
2023-02-04T06:40:03.341Z,4.20
2023-02-04T06:42:30.143Z,4.20
2023-02-04T06:44:56.907Z,4.20
2023-02-04T06:47:23.997Z,4.20
2023-02-04T06:49:50.849Z,4.20
2023-02-04T06:52:17.698Z,4.20
2023-02-04T06:54:44.493Z,4.40
2023-02-04T06:57:12.292Z,4.30
2023-02-04T06:59:40.492Z,4.30
2023-02-04T07:02:08.930Z,4.40
2023-02-04T07:04:35.848Z,4.30
2023-02-04T07:07:02.864Z,4.30
2023-02-04T07:09:29.849Z,4.30
2023-02-04T07:11:56.697Z,4.30
2023-02-04T07:14:23.675Z,4.30
2023-02-04T07:16:50.479Z,4.40
2023-02-04T07:19:17.763Z,4.50
2023-02-04T07:21:45.280Z,4.50
2023-02-04T07:24:12.092Z,4.50
2023-02-04T07:26:38.994Z,4.70
2023-02-04T07:29:08.481Z,4.80
2023-02-04T07:31:39.140Z,4.80
2023-02-04T07:34:06.006Z,4.80
2023-02-04T07:36:33.307Z,4.80
2023-02-04T07:39:00.118Z,4.80
2023-02-04T07:41:26.952Z,4.90
2023-02-04T07:43:53.840Z,4.80
2023-02-04T07:46:20.732Z,4.80
2023-02-04T07:48:47.635Z,4.80
2023-02-04T07:51:14.486Z,4.70
2023-02-04T07:53:41.297Z,4.60
2023-02-04T07:56:08.220Z,4.70
2023-02-04T07:58:35.010Z,4.60
2023-02-04T08:01:02.124Z,4.60
2023-02-04T08:03:29.063Z,4.40
2023-02-04T08:05:56.073Z,4.40
2023-02-04T08:08:23.008Z,4.50
2023-02-04T08:10:50.330Z,4.50
2023-02-04T08:13:17.171Z,4.60
2023-02-04T08:15:44.093Z,4.70
2023-02-04T08:18:10.946Z,4.90
2023-02-04T08:20:37.800Z,4.90
2023-02-04T08:23:04.663Z,5.00
2023-02-04T08:25:31.482Z,5.00
2023-02-04T08:27:58.345Z,5.20
2023-02-04T08:30:25.322Z,5.30
2023-02-04T08:32:52.389Z,5.30
2023-02-04T08:35:19.582Z,5.30
2023-02-04T08:37:46.383Z,5.40
2023-02-04T08:40:13.206Z,5.30
2023-02-04T08:42:39.977Z,5.40
2023-02-04T08:45:07.460Z,5.40
2023-02-04T08:47:34.323Z,5.50
2023-02-04T08:50:01.175Z,5.40
2023-02-04T08:52:28.019Z,5.30
2023-02-04T08:54:54.816Z,5.30
2023-02-04T08:57:21.726Z,5.40
2023-02-04T08:59:48.543Z,5.00
2023-02-04T09:02:15.420Z,4.70
2023-02-04T09:04:42.249Z,4.70
2023-02-04T09:07:09.127Z,4.60
2023-02-04T09:09:35.938Z,4.40
2023-02-04T09:12:03.237Z,4.40
2023-02-04T09:14:30.129Z,4.40
2023-02-04T09:16:56.976Z,4.20
2023-02-04T09:19:25.608Z,4.10
2023-02-04T09:21:53.874Z,4.00
2023-02-04T09:24:23.568Z,4.00
2023-02-04T09:26:50.699Z,3.80
2023-02-04T09:29:17.531Z,3.90
2023-02-04T09:31:44.406Z,3.90
2023-02-04T09:34:11.378Z,3.80
2023-02-04T09:36:39.094Z,3.80
2023-02-04T09:39:07.229Z,4.00
2023-02-04T09:41:35.156Z,4.10
2023-02-04T09:44:04.373Z,4.10
2023-02-04T09:46:33.076Z,4.00
2023-02-04T09:49:00.420Z,4.20
2023-02-04T09:51:29.826Z,4.20
2023-02-04T09:54:19.128Z,4.40
2023-02-04T09:56:46.577Z,4.60
2023-02-04T09:59:22.778Z,4.50
2023-02-04T10:02:00.917Z,4.70
2023-02-04T10:04:28.658Z,4.90
2023-02-04T10:06:58.924Z,5.40
2023-02-04T10:09:26.033Z,5.90
2023-02-04T10:11:52.912Z,5.80
2023-02-04T10:14:22.788Z,5.90
2023-02-04T10:17:01.364Z,5.90
2023-02-04T10:19:30.649Z,5.80
2023-02-04T10:21:57.950Z,5.90
2023-02-04T10:24:26.817Z,5.80
2023-02-04T10:26:54.404Z,5.80
2023-02-04T10:29:25.623Z,5.80
2023-02-04T10:31:52.873Z,5.80
2023-02-04T10:34:22.079Z,5.70
2023-02-04T10:36:55.777Z,5.60
2023-02-04T10:39:26.055Z,5.40
2023-02-04T10:41:58.895Z,5.30
2023-02-04T10:44:32.533Z,5.30
2023-02-04T10:47:19.040Z,5.30
2023-02-04T10:50:17.506Z,5.30
2023-02-04T10:52:49.909Z,5.40
2023-02-04T10:55:24.165Z,5.50
2023-02-04T10:57:53.171Z,5.50
2023-02-04T11:00:23.547Z,5.60
2023-02-04T11:03:04.024Z,5.70
2023-02-04T11:05:36.237Z,5.80
2023-02-04T11:08:26.451Z,5.80
2023-02-04T11:11:05.269Z,5.70
2023-02-04T11:13:43.947Z,5.80
2023-02-04T11:16:18.583Z,5.90
2023-02-04T11:18:55.415Z,5.80
2023-02-04T11:21:31.908Z,5.90
2023-02-04T11:24:14.044Z,6.00
2023-02-04T11:26:46.402Z,6.00
2023-02-04T11:29:15.911Z,6.30
2023-02-04T11:31:49.293Z,7.20
2023-02-04T11:34:16.230Z,7.70
2023-02-04T11:37:01.361Z,8.10
2023-02-04T11:39:49.011Z,8.40
2023-02-04T11:42:31.099Z,8.30
2023-02-04T11:45:14.775Z,8.30
2023-02-04T11:47:43.102Z,8.30
2023-02-04T11:50:30.577Z,8.40
2023-02-04T11:53:02.217Z,8.10
2023-02-04T11:55:31.651Z,7.80
2023-02-04T11:57:58.759Z,7.70
2023-02-04T12:00:30.325Z,7.50
2023-02-04T12:03:07.910Z,7.30
2023-02-04T12:05:44.312Z,7.00
2023-02-04T12:08:21.675Z,7.00
2023-02-04T12:11:11.863Z,7.10
2023-02-04T12:13:52.084Z,7.60
2023-02-04T12:16:19.429Z,8.70
2023-02-04T12:18:46.357Z,10.20
2023-02-04T12:21:14.436Z,12.20
2023-02-04T12:23:44.362Z,13.30
2023-02-04T12:26:12.608Z,14.20
2023-02-04T12:28:39.910Z,14.40
2023-02-04T12:31:06.827Z,13.60
2023-02-04T12:33:33.770Z,12.20
2023-02-04T12:36:00.592Z,10.60
2023-02-04T12:38:28.196Z,9.70
2023-02-04T12:40:55.071Z,8.90
2023-02-04T12:43:21.993Z,8.80
2023-02-04T12:45:49.838Z,8.40
2023-02-04T12:48:17.120Z,8.20
2023-02-04T12:50:44.095Z,8.30
2023-02-04T12:53:11.043Z,8.50
2023-02-04T12:55:37.908Z,8.50
2023-02-04T12:58:05.164Z,8.40
2023-02-04T13:00:32.117Z,7.90
2023-02-04T13:02:59.222Z,7.50
2023-02-04T13:05:26.934Z,7.30
2023-02-04T13:07:53.999Z,7.20
2023-02-04T13:10:21.855Z,7.10
2023-02-04T13:12:48.884Z,7.10
2023-02-04T13:15:16.172Z,7.10
2023-02-04T13:17:43.181Z,7.10
2023-02-04T13:20:10.964Z,7.00
2023-02-04T13:22:37.744Z,6.70
2023-02-04T13:25:05.554Z,6.70
2023-02-04T13:27:32.435Z,6.50
2023-02-04T13:29:59.428Z,6.60
2023-02-04T13:32:26.284Z,6.40
2023-02-04T13:34:53.086Z,6.40
2023-02-04T13:37:19.966Z,6.20
2023-02-04T13:39:46.755Z,6.20
2023-02-04T13:42:13.718Z,6.30
2023-02-04T13:44:40.541Z,6.20
2023-02-04T13:47:07.538Z,6.10
2023-02-04T13:49:34.531Z,6.10
2023-02-04T13:52:01.557Z,6.10
2023-02-04T13:54:28.409Z,6.20
2023-02-04T13:56:55.375Z,6.30
2023-02-04T13:59:22.191Z,6.00
2023-02-04T14:01:49.047Z,6.10
2023-02-04T14:04:15.917Z,6.10
2023-02-04T14:06:45.413Z,6.00
2023-02-04T14:09:12.901Z,6.00
2023-02-04T14:11:40.381Z,6.10
2023-02-04T14:14:07.507Z,6.20
2023-02-04T14:16:36.333Z,6.20
2023-02-04T14:19:05.420Z,6.20
2023-02-04T14:21:33.067Z,6.20
2023-02-04T14:23:59.933Z,6.10
2023-02-04T14:26:26.899Z,6.20
2023-02-04T14:28:53.698Z,6.50
2023-02-04T14:31:21.699Z,6.40
2023-02-04T14:33:50.362Z,6.10
2023-02-04T14:36:17.372Z,6.10
2023-02-04T14:38:44.281Z,5.90
2023-02-04T14:41:16.121Z,5.90
2023-02-04T14:43:42.975Z,5.60
2023-02-04T14:46:09.898Z,5.50
2023-02-04T14:48:36.865Z,5.30
2023-02-04T14:51:04.687Z,5.30
2023-02-04T14:53:31.564Z,5.20
2023-02-04T14:55:58.785Z,5.20
2023-02-04T14:58:27.833Z,5.20
2023-02-04T15:00:54.959Z,5.30
2023-02-04T15:03:21.896Z,5.30
2023-02-04T15:05:48.709Z,5.80
2023-02-04T15:08:15.539Z,6.10
2023-02-04T15:10:42.392Z,6.70
2023-02-04T15:13:09.332Z,7.40
2023-02-04T15:15:36.122Z,8.30
2023-02-04T15:18:02.943Z,8.70
2023-02-04T15:20:29.824Z,9.30
2023-02-04T15:22:56.906Z,10.20
2023-02-04T15:25:24.644Z,11.30
2023-02-04T15:27:51.619Z,11.70
2023-02-04T15:30:18.770Z,11.10
2023-02-04T15:32:46.092Z,10.60
2023-02-04T15:35:13.832Z,9.80
2023-02-04T15:37:40.692Z,8.90
2023-02-04T15:40:08.732Z,7.60
2023-02-04T15:42:36.572Z,6.50
2023-02-04T15:45:04.820Z,6.20
2023-02-04T15:47:31.701Z,5.70
2023-02-04T15:49:58.524Z,5.30
2023-02-04T15:52:26.039Z,5.10
2023-02-04T15:54:53.520Z,4.80
2023-02-04T15:57:20.401Z,4.70
2023-02-04T15:59:47.420Z,4.50
2023-02-04T16:02:14.323Z,4.30
2023-02-04T16:04:45.065Z,4.10
2023-02-04T16:07:12.391Z,3.80
2023-02-04T16:09:39.695Z,3.60
2023-02-04T16:12:06.894Z,3.50
2023-02-04T16:14:33.762Z,3.40
2023-02-04T16:17:01.799Z,3.30
2023-02-04T16:19:29.314Z,3.20
2023-02-04T16:21:56.273Z,3.10
2023-02-04T16:24:23.206Z,3.00
2023-02-04T16:26:50.137Z,2.90
2023-02-04T16:29:17.337Z,2.80
2023-02-04T16:31:44.330Z,2.70
2023-02-04T16:34:11.295Z,2.60
2023-02-04T16:36:38.145Z,2.50
2023-02-04T16:39:05.128Z,2.40
2023-02-04T16:41:31.993Z,2.30
2023-02-04T16:44:00.178Z,2.30
2023-02-04T16:46:28.665Z,2.30
2023-02-04T16:48:55.531Z,2.20
2023-02-04T16:51:22.346Z,2.20
2023-02-04T16:53:50.390Z,2.10
2023-02-04T16:56:17.191Z,2.00
2023-02-04T16:58:44.788Z,1.90
2023-02-04T17:01:11.720Z,1.80
2023-02-04T17:03:38.641Z,1.80
2023-02-04T17:06:06.224Z,1.70
2023-02-04T17:08:33.363Z,1.70
2023-02-04T17:11:19.223Z,1.60
2023-02-04T17:13:46.060Z,1.60
2023-02-04T17:16:13.017Z,1.60
2023-02-04T17:18:39.951Z,1.60
2023-02-04T17:21:06.865Z,1.60
2023-02-04T17:23:35.299Z,1.60
2023-02-04T17:26:02.218Z,1.60
2023-02-04T17:28:29.063Z,1.60
2023-02-04T17:30:56.056Z,1.50
2023-02-04T17:33:23.056Z,1.60
2023-02-04T17:35:49.953Z,1.50
2023-02-04T17:38:16.800Z,1.50
2023-02-04T17:40:44.099Z,1.60
2023-02-04T17:43:10.952Z,1.50
2023-02-04T17:45:38.166Z,1.60
2023-02-04T17:48:06.342Z,1.50
2023-02-04T17:53:10.442Z,1.50
2023-02-04T17:55:39.658Z,1.50
2023-02-04T17:58:22.373Z,1.50
2023-02-04T18:00:53.215Z,1.50
2023-02-04T18:03:22.863Z,1.50
2023-02-04T18:05:54.347Z,1.50
2023-02-04T18:08:31.718Z,1.40
2023-02-04T18:10:58.773Z,1.40
2023-02-04T18:13:32.742Z,1.30
2023-02-04T18:16:08.184Z,1.40
2023-02-04T18:18:40.691Z,1.30
2023-02-04T18:21:22.480Z,1.30
2023-02-04T18:24:09.504Z,1.30
2023-02-04T18:26:47.165Z,1.30
2023-02-04T18:29:34.744Z,1.30
2023-02-04T18:32:28.636Z,1.30
2023-02-04T18:34:57.643Z,1.30
2023-02-04T18:37:36.890Z,1.40
2023-02-04T18:40:09.724Z,1.30
2023-02-04T18:42:40.427Z,1.30
2023-02-04T18:45:19.855Z,1.30
2023-02-04T18:47:46.991Z,1.30
2023-02-04T18:50:35.375Z,1.20
2023-02-04T18:53:27.155Z,1.20
2023-02-04T18:56:00.529Z,1.10
2023-02-04T18:58:37.622Z,1.00
2023-02-04T19:01:27.468Z,1.00
2023-02-04T19:03:55.695Z,0.90
2023-02-04T19:06:40.175Z,0.90
2023-02-04T19:09:13.467Z,0.80
2023-02-04T19:11:54.810Z,0.80
2023-02-04T19:14:29.205Z,0.80
2023-02-04T19:17:28.107Z,0.80
2023-02-04T19:20:16.466Z,0.80
2023-02-04T19:22:54.015Z,0.70
2023-02-04T19:25:40.143Z,0.70
2023-02-04T19:28:37.145Z,0.70
2023-02-04T19:31:08.053Z,0.60
2023-02-04T19:33:42.672Z,0.60
2023-02-04T19:36:38.100Z,0.60
2023-02-04T19:39:35.409Z,0.50
2023-02-04T19:42:02.418Z,0.50
2023-02-04T19:44:46.308Z,0.40
2023-02-04T19:47:21.947Z,0.40
2023-02-04T19:49:48.978Z,0.40
2023-02-04T19:52:43.757Z,0.30
2023-02-04T19:55:33.704Z,0.30
2023-02-04T19:58:24.010Z,0.20
2023-02-04T20:01:02.143Z,0.20
2023-02-04T20:03:43.115Z,0.20
2023-02-04T20:06:37.149Z,0.10
2023-02-04T20:09:23.414Z,0.00
2023-02-04T20:12:11.641Z,-0.10
2023-02-04T20:14:49.558Z,-0.10
2023-02-04T20:17:39.052Z,-0.30
2023-02-04T20:20:31.663Z,-0.30
2023-02-04T20:23:14.835Z,-0.40
2023-02-04T20:25:46.800Z,-0.40
2023-02-04T20:28:24.001Z,-0.50
2023-02-04T20:30:52.359Z,-0.50
2023-02-04T20:33:48.906Z,-0.50
2023-02-04T20:36:35.733Z,-0.60
2023-02-04T20:39:37.086Z,-0.60
2023-02-04T20:42:22.675Z,-0.70
2023-02-04T20:44:49.673Z,-0.80
2023-02-04T20:47:19.080Z,-0.80
2023-02-04T20:49:58.093Z,-0.80
2023-02-04T20:52:40.150Z,-0.80
2023-02-04T20:55:27.828Z,-0.80
2023-02-04T20:58:17.795Z,-0.90
2023-02-04T21:00:48.599Z,-0.90
2023-02-04T21:03:37.792Z,-0.90
2023-02-04T21:06:21.318Z,-0.90
2023-02-04T21:08:51.708Z,-1.00
2023-02-04T21:11:18.856Z,-1.00
2023-02-04T21:13:45.724Z,-1.00
2023-02-04T21:16:12.588Z,-1.10
2023-02-04T21:18:39.723Z,-1.10
2023-02-04T21:21:08.501Z,-1.00
2023-02-04T21:23:36.708Z,-1.10
2023-02-04T21:26:04.696Z,-1.00
2023-02-04T21:28:32.404Z,-1.00
2023-02-04T21:31:00.312Z,-0.90
2023-02-04T21:33:27.545Z,-0.80
2023-02-04T21:35:54.610Z,-0.80
2023-02-04T21:38:21.436Z,-0.70
2023-02-04T21:40:48.359Z,-0.70
2023-02-04T21:43:15.255Z,-0.60
2023-02-04T21:45:42.074Z,-0.60
2023-02-04T21:48:09.021Z,-0.50
2023-02-04T21:50:38.394Z,-0.50
2023-02-04T21:53:07.419Z,-0.40
2023-02-04T21:55:35.661Z,-0.40
2023-02-04T21:58:02.693Z,-0.30
2023-02-04T22:00:29.981Z,-0.20
2023-02-04T22:02:56.998Z,-0.10
2023-02-04T22:05:24.359Z,-0.10
2023-02-04T22:08:00.123Z,-0.10
2023-02-04T22:10:27.042Z,0.00
2023-02-04T22:12:53.901Z,0.00
2023-02-04T22:15:21.559Z,0.10
2023-02-04T22:17:49.253Z,0.10
2023-02-04T22:20:17.148Z,0.10
2023-02-04T22:22:47.641Z,0.10
2023-02-04T22:25:17.497Z,0.10
2023-02-04T22:27:44.512Z,0.10
2023-02-04T22:30:13.540Z,0.10
2023-02-04T22:32:40.637Z,0.10
2023-02-04T22:35:12.244Z,0.10
2023-02-04T22:37:41.150Z,0.00
2023-02-04T22:40:10.262Z,-0.10
2023-02-04T22:42:37.108Z,-0.10
2023-02-04T22:45:04.985Z,-0.20
2023-02-04T22:47:32.234Z,-0.20
2023-02-04T22:49:59.073Z,-0.30
2023-02-04T22:52:26.023Z,-0.30
2023-02-04T22:54:53.451Z,-0.40
2023-02-04T22:57:20.266Z,-0.40
2023-02-04T22:59:47.103Z,-0.40
2023-02-04T23:02:14.306Z,-0.40
2023-02-04T23:04:43.902Z,-0.40
2023-02-04T23:07:12.372Z,-0.40
2023-02-04T23:09:39.710Z,-0.40
2023-02-04T23:12:12.920Z,-0.50
2023-02-04T23:14:46.947Z,-0.50
2023-02-04T23:17:15.818Z,-0.70
2023-02-04T23:19:43.227Z,-0.80
2023-02-04T23:22:12.668Z,-0.80
2023-02-04T23:24:40.850Z,-0.90
2023-02-04T23:27:09.285Z,-0.90
2023-02-04T23:29:36.200Z,-0.90
2023-02-04T23:32:04.087Z,-0.90
2023-02-04T23:34:31.577Z,-1.00
2023-02-04T23:36:58.478Z,-1.00
2023-02-04T23:39:25.336Z,-1.00
2023-02-04T23:41:52.720Z,-1.00
2023-02-04T23:44:19.681Z,-1.00
2023-02-04T23:46:46.534Z,-1.00
2023-02-04T23:49:13.744Z,-1.00
2023-02-04T23:51:40.641Z,-1.00
2023-02-04T23:54:07.690Z,-1.00
2023-02-04T23:56:34.952Z,-1.00
2023-02-04T23:59:02.310Z,-1.00
